Time;durP1;ratioP1;P1;durP2;ratioP2;P2;SDS_P1;SDS_P2;PMS_P1;PMS_P2;Temp;Humidity;BMP_temperature;BMP_pressure;BME280_temperature;BME280_humidity;BME280_pressure;Samples;Min_cycle;Max_cycle;Signal;HPM_P1;HPM_P2
2023/07/13 00:00:47;;;;;;;1.20;0.50;;;26.20;86.00;;;;;;20958144;28;20355;-84
2023/07/13 00:10:49;;;;;;;0.63;0.40;;;;;;;;;;20952879;28;20232;-84
2023/07/13 00:20:51;;;;;;;0.55;0.40;;;;;;;;;;20937040;28;20232;-84
2023/07/13 00:30:54;;;;;;;2.50;0.47;;;;;;;;;;20991640;28;20265;-85
2023/07/13 00:40:55;;;;;;;0.80;0.50;;;;;;;;;;20976872;28;20280;-84
2023/07/13 00:51:00;;;;;;;0.35;0.28;;;24.90;90.30;;;;;;20930348;28;20739;-83
2023/07/13 01:01:02;;;;;;;1.58;0.45;;;;;;;;;;20939487;28;20212;-80
2023/07/13 01:11:04;;;;;;;1.35;0.50;;;;;;;;;;20965189;28;20223;-81
2023/07/13 01:21:05;;;;;;;0.75;0.30;;;;;;;;;;20924427;28;20281;-80
2023/07/13 01:31:09;;;;;;;0.40;0.30;;;;;;;;;;20944983;28;20233;-80
2023/07/13 01:41:10;;;;;;;2.22;0.50;;;;;;;;;;20962009;28;20278;-80
2023/07/13 01:51:13;;;;;;;0.73;0.40;;;;;;;;;;20990494;28;20280;-81
2023/07/13 02:01:15;;;;;;;0.65;0.40;;;;;;;;;;21002688;28;20234;-80
2023/07/13 02:11:17;;;;;;;0.50;0.43;;;;;;;;;;20955919;28;20341;-80
2023/07/13 02:21:19;;;;;;;1.20;0.50;;;;;;;;;;20967932;28;20252;-81
2023/07/13 02:31:21;;;;;;;0.47;0.22;;;;;;;;;;20975046;28;20226;-80
2023/07/13 02:41:23;;;;;;;1.38;0.40;;;;;;;;;;20945621;28;20341;-81
2023/07/13 02:51:24;;;;;;;1.25;0.45;;;;;;;;;;20955823;28;20720;-81
2023/07/13 03:01:26;;;;;;;3.03;0.40;;;;;;;;;;20958180;28;20304;-81
2023/07/13 03:11:28;;;;;;;2.03;0.60;;;;;;;;;;20948133;28;20278;-81
2023/07/13 03:21:39;;;;;;;4.53;0.88;;;;;;;;;;20968493;28;20283;-81
2023/07/13 03:31:41;;;;;;;1.20;0.55;;;;;;;;;;20938890;28;20719;-81
2023/07/13 03:41:42;;;;;;;0.95;0.38;;;;;;;;;;20942316;28;20227;-81
2023/07/13 03:51:44;;;;;;;2.25;0.40;;;25.30;90.40;;;;;;20944400;28;20231;-81
2023/07/13 04:01:46;;;;;;;0.95;0.40;;;;;;;;;;20957673;28;20257;-82
2023/07/13 04:11:48;;;;;;;1.00;0.40;;;;;;;;;;20963590;28;20307;-82
2023/07/13 04:21:50;;;;;;;0.60;0.30;;;;;;;;;;20946612;28;20265;-80
2023/07/13 04:31:52;;;;;;;0.85;0.40;;;;;;;;;;20977320;28;20237;-81
2023/07/13 04:41:55;;;;;;;1.25;0.35;;;;;;;;;;20931703;28;20234;-83
2023/07/13 04:51:57;;;;;;;2.45;0.50;;;;;;;;;;20964297;28;20641;-82
2023/07/13 05:01:59;;;;;;;1.23;0.60;;;;;;;;;;20915640;28;20228;-81
2023/07/13 05:12:01;;;;;;;0.80;0.45;;;;;;;;;;20963947;28;20399;-81
2023/07/13 05:22:03;;;;;;;1.70;0.52;;;;;;;;;;20962221;28;20223;-81
2023/07/13 05:32:05;;;;;;;0.80;0.50;;;;;;;;;;20961838;28;20234;-81
2023/07/13 05:42:07;;;;;;;1.73;0.50;;;;;;;;;;20969645;28;20622;-82
2023/07/13 05:52:11;;;;;;;0.70;0.40;;;;;;;;;;20954954;28;20284;-83
2023/07/13 06:02:13;;;;;;;2.38;0.47;;;;;;;;;;20935322;28;20290;-80
2023/07/13 06:12:14;;;;;;;1.90;0.60;;;;;;;;;;20937971;28;20223;-82
2023/07/13 06:22:16;;;;;;;2.67;0.70;;;;;;;;;;20924089;28;20218;-80
2023/07/13 06:32:18;;;;;;;1.90;0.50;;;;;;;;;;20889247;28;20229;-81
2023/07/13 06:42:19;;;;;;;1.20;0.50;;;;;;;;;;20929876;28;20311;-80
2023/07/13 06:52:23;;;;;;;0.63;0.43;;;;;;;;;;20925948;28;20241;-78
2023/07/13 07:02:25;;;;;;;3.05;0.50;;;;;;;;;;20964944;28;20223;-79
2023/07/13 07:12:30;;;;;;;0.28;0.28;;;;;;;;;;20901244;28;20285;-80
2023/07/13 07:22:33;;;;;;;0.75;0.43;;;;;;;;;;20958976;28;20235;-80
2023/07/13 07:32:35;;;;;;;0.73;0.32;;;;;;;;;;20941956;28;20885;-81
2023/07/13 07:42:36;;;;;;;1.08;0.50;;;;;;;;;;20919511;28;20245;-83
2023/07/13 07:52:39;;;;;;;1.63;0.50;;;;;;;;;;20970560;28;20269;-85
2023/07/13 08:02:42;;;;;;;2.95;0.50;;;;;;;;;;20923937;28;20245;-83
2023/07/13 08:12:44;;;;;;;0.98;0.45;;;;;;;;;;20943535;28;20332;-83
2023/07/13 08:22:46;;;;;;;3.80;0.80;;;;;;;;;;20962775;28;20252;-82
2023/07/13 08:32:48;;;;;;;1.40;0.63;;;;;;;;;;20930002;28;20651;-82
2023/07/13 08:42:55;;;;;;;1.58;0.60;;;;;;;;;;20912609;28;20232;-82
2023/07/13 08:52:56;;;;;;;1.35;0.57;;;;;;;;;;20931696;28;20919;-81
2023/07/13 09:03:00;;;;;;;1.05;0.52;;;26.30;87.00;;;;;;20935640;28;20258;-83
2023/07/13 09:13:25;;;;;;;2.65;0.50;;;;;;;;;;20929311;28;20227;-81
2023/07/13 09:23:29;;;;;;;0.80;0.30;;;;;;;;;;20967034;28;20298;-84
2023/07/13 09:33:31;;;;;;;0.77;0.50;;;;;;;;;;20931066;28;20726;-82
2023/07/13 09:43:33;;;;;;;1.10;0.57;;;;;;;;;;20955237;28;20214;-82
2023/07/13 09:53:36;;;;;;;0.75;0.40;;;;;;;;;;20958159;28;20263;-82
2023/07/13 10:03:39;;;;;;;2.33;0.70;;;;;;;;;;20941156;28;20839;-82
2023/07/13 10:13:43;;;;;;;0.98;0.35;;;;;;;;;;20966001;28;20238;-82
2023/07/13 10:23:47;;;;;;;3.70;0.70;;;;;;;;;;20938611;28;20223;-82
2023/07/13 10:33:49;;;;;;;1.63;0.40;;;;;;;;;;20914556;28;20668;-83
2023/07/13 10:43:52;;;;;;;1.00;0.40;;;;;;;;;;20935622;28;20219;-83
2023/07/13 10:54:16;;;;;;;2.40;0.52;;;;;;;;;;20956945;28;20264;-83
2023/07/13 11:04:20;;;;;;;0.68;0.40;;;;;;;;;;20941639;28;20293;-83
2023/07/13 11:14:28;;;;;;;4.82;0.93;;;;;;;;;;20948957;28;20253;-83
2023/07/13 11:24:47;;;;;;;1.42;0.60;;;;;;;;;;20973645;28;20223;-83
2023/07/13 11:34:50;;;;;;;1.13;0.30;;;;;;;;;;20926648;28;20228;-82
2023/07/13 11:44:51;;;;;;;1.88;0.40;;;;;;;;;;20955269;28;20224;-85
2023/07/13 11:54:58;;;;;;;1.73;0.60;;;;;;;;;;20922868;28;20223;-83
2023/07/13 12:05:02;;;;;;;1.65;0.40;;;;;;;;;;20998194;28;20225;-84
2023/07/13 12:15:11;;;;;;;1.17;0.65;;;27.50;71.20;;;;;;20947398;28;20233;-84
2023/07/13 12:25:14;;;;;;;0.95;0.45;;;;;;;;;;20937184;28;20280;-84
2023/07/13 12:35:18;;;;;;;1.40;0.38;;;;;;;;;;20964002;28;20252;-83
2023/07/13 12:45:24;;;;;;;1.92;0.40;;;;;;;;;;20935540;28;20221;-83
2023/07/13 12:55:32;;;;;;;0.75;0.40;;;;;;;;;;20923317;28;20232;-84
2023/07/13 13:05:33;;;;;;;1.00;0.40;;;26.10;74.10;;;;;;20941173;28;20224;-82
2023/07/13 13:15:37;;;;;;;0.80;0.40;;;;;;;;;;20918271;28;20237;-83
2023/07/13 13:25:38;;;;;;;1.25;0.40;;;;;;;;;;20975319;28;20227;-85
2023/07/13 13:35:41;;;;;;;0.70;0.40;;;26.20;80.10;;;;;;20936012;28;20220;-84
2023/07/13 13:45:43;;;;;;;1.15;0.60;;;;;;;;;;20946566;28;20224;-81
2023/07/13 13:55:46;;;;;;;1.63;0.77;;;;;;;;;;20956835;28;20320;-81
2023/07/13 14:05:49;;;;;;;0.90;0.32;;;27.80;74.50;;;;;;20950400;28;20701;-80
2023/07/13 14:15:51;;;;;;;0.80;0.40;;;;;;;;;;20931167;28;20221;-80
2023/07/13 14:25:53;;;;;;;1.50;0.43;;;;;;;;;;20973420;28;20557;-80
2023/07/13 14:35:55;;;;;;;2.05;0.65;;;;;;;;;;20952607;28;20821;-82
2023/07/13 14:45:56;;;;;;;1.60;0.60;;;;;;;;;;20969313;28;20262;-81
2023/07/13 14:55:58;;;;;;;1.70;0.40;;;;;;;;;;20921526;28;20670;-81
2023/07/13 15:06:00;;;;;;;1.17;0.43;;;;;;;;;;20986694;28;20229;-82
2023/07/13 15:16:02;;;;;;;1.85;0.52;;;;;;;;;;20943329;28;20236;-80
2023/07/13 15:26:03;;;;;;;2.13;0.73;;;;;;;;;;20955010;28;20280;-81
2023/07/13 15:36:05;;;;;;;1.20;0.40;;;;;;;;;;20956372;28;20231;-82
2023/07/13 15:46:13;;;;;;;3.38;0.40;;;;;;;;;;20928458;28;20206;-82
2023/07/13 15:56:22;;;;;;;0.50;0.30;;;;;;;;;;20945073;28;20285;-79
2023/07/13 16:06:29;;;;;;;1.73;0.50;;;;;;;;;;20992173;28;20226;-80
2023/07/13 16:16:32;;;;;;;1.23;0.43;;;;;;;;;;20960208;28;20224;-80
2023/07/13 16:26:42;;;;;;;1.88;0.60;;;29.30;75.10;;;;;;20958657;28;20693;-80
2023/07/13 16:36:45;;;;;;;0.73;0.30;;;;;;;;;;20949157;28;20228;-80
2023/07/13 16:46:49;;;;;;;4.70;0.50;;;29.00;75.20;;;;;;20945145;28;20285;-81
2023/07/13 16:56:51;;;;;;;0.70;0.32;;;;;;;;;;20974463;28;20280;-81
2023/07/13 17:06:53;;;;;;;1.25;0.32;;;;;;;;;;20951054;28;20223;-79
2023/07/13 17:16:56;;;;;;;0.77;0.35;;;;;;;;;;20923376;28;20237;-80
2023/07/13 17:26:58;;;;;;;3.00;0.60;;;;;;;;;;20954535;28;20284;-79
2023/07/13 17:37:01;;;;;;;0.60;0.30;;;;;;;;;;20974225;28;20236;-80
2023/07/13 17:47:05;;;;;;;0.88;0.47;;;;;;;;;;20951659;28;20231;-79
2023/07/13 17:57:07;;;;;;;0.28;0.20;;;;;;;;;;20941600;28;20293;-79
2023/07/13 18:07:13;;;;;;;0.40;0.30;;;;;;;;;;20936085;28;20237;-80
2023/07/13 18:17:18;;;;;;;0.63;0.30;;;;;;;;;;20945639;28;20261;-80
2023/07/13 18:27:23;;;;;;;1.33;0.38;;;;;;;;;;20930634;28;20281;-81
2023/07/13 18:37:25;;;;;;;2.97;0.40;;;;;;;;;;20938670;28;20281;-82
2023/07/13 18:47:34;;;;;;;2.30;0.40;;;;;;;;;;20932685;28;20278;-81
2023/07/13 18:57:35;;;;;;;1.23;0.32;;;;;;;;;;20960712;28;20240;-80
2023/07/13 19:19:02;;;;;;;3.83;0.55;;;;;;;;;;20949823;28;20760;-80
2023/07/13 19:29:05;;;;;;;5.55;0.60;;;;;;;;;;20994092;28;20255;-80
2023/07/13 19:39:16;;;;;;;0.22;0.20;;;;;;;;;;20976207;28;20257;-81
2023/07/13 19:49:19;;;;;;;0.25;0.20;;;;;;;;;;20949909;28;20364;-83
2023/07/13 19:59:23;;;;;;;1.30;0.30;;;;;;;;;;20935073;28;20235;-84
2023/07/13 20:09:26;;;;;;;0.75;0.35;;;;;;;;;;20917807;28;20694;-83
2023/07/13 20:19:32;;;;;;;1.20;0.40;;;;;;;;;;20932527;28;20291;-83
2023/07/13 20:29:34;;;;;;;0.30;0.25;;;;;;;;;;20961386;28;20281;-83
2023/07/13 20:39:36;;;;;;;0.68;0.35;;;;;;;;;;20962691;28;20831;-82
2023/07/13 20:49:38;;;;;;;0.57;0.30;;;;;;;;;;20956243;28;20220;-82
2023/07/13 20:59:41;;;;;;;1.17;0.43;;;;;;;;;;20934288;28;20212;-83
2023/07/13 21:09:43;;;;;;;0.75;0.30;;;;;;;;;;20919417;23;20230;-70
2023/07/13 21:19:44;;;;;;;1.25;0.50;;;;;;;;;;20905115;28;20213;-70
2023/07/13 21:29:52;;;;;;;1.05;0.30;;;;;;;;;;20895193;28;20227;-70
2023/07/13 21:39:54;;;;;;;1.70;0.50;;;;;;;;;;20914519;28;20214;-70
2023/07/13 21:49:56;;;;;;;0.65;0.30;;;;;;;;;;20870427;28;20601;-70
2023/07/13 21:59:58;;;;;;;2.05;0.50;;;;;;;;;;20892953;28;20242;-70
2023/07/13 22:10:00;;;;;;;0.50;0.30;;;;;;;;;;20878809;28;20277;-70
2023/07/13 22:20:08;;;;;;;1.33;0.38;;;;;;;;;;20885270;28;20232;-70
2023/07/13 22:30:12;;;;;;;0.65;0.47;;;;;;;;;;20884257;28;20787;-70
2023/07/13 22:40:16;;;;;;;1.35;0.40;;;;;;;;;;20898766;28;20288;-71
2023/07/13 22:50:18;;;;;;;4.53;0.75;;;;;;;;;;20945710;28;20772;-70
2023/07/13 23:00:20;;;;;;;2.15;0.57;;;;;;;;;;20916330;28;20274;-70
2023/07/13 23:10:22;;;;;;;1.58;0.47;;;;;;;;;;20902765;28;20227;-70
2023/07/13 23:20:28;;;;;;;2.22;0.65;;;;;;;;;;20916889;28;20246;-70
2023/07/13 23:30:31;;;;;;;3.15;0.40;;;;;;;;;;20911147;28;20234;-70
2023/07/13 23:40:33;;;;;;;0.47;0.30;;;;;;;;;;20867718;28;20235;-70
2023/07/13 23:50:35;;;;;;;1.13;0.40;;;;;;;;;;20902972;28;20261;-70
